Wetterdaten: Montag, 28.05.2018
Datum Zeit Temp. A. Temp. A. min Temp. A. max Feuchte A. Bod.Feucht 4 Luftdruck Regen Wind Richtung Richtung Sonnenschein ET Solar Taupunkt Windchill Windben Empfang
28.05.2018 00:00 17,7 C 17,7 C 17,8 C 84 % 0 cb 1015,1 hPa 0,0 l/m 3,2 km/h (1 Bft) N-NO 22 0 min 0,025 mm 0 W/m 15,0 C 17,7 C 9,7 km/h (2 Bft) 100,00 %
28.05.2018 00:10 17,6 C 17,6 C 17,7 C 84 % 0 cb 1014,9 hPa 0,0 l/m 4,8 km/h (1 Bft) N-NO 22 0 min 0,000 mm 0 W/m 14,9 C 17,6 C 16,1 km/h (3 Bft) 100,00 %
28.05.2018 00:20 17,5 C 17,5 C 17,6 C 85 % 0 cb 1014,8 hPa 0,0 l/m 6,4 km/h (2 Bft) N-NO 22 0 min 0,000 mm 0 W/m 14,9 C 17,5 C 12,9 km/h (3 Bft) 100,00 %
28.05.2018 00:30 17,6 C 17,5 C 17,6 C 85 % 0 cb 1014,8 hPa 0,0 l/m 6,4 km/h (2 Bft) N-NO 22 0 min 0,000 mm 0 W/m 15,0 C 17,6 C 12,9 km/h (3 Bft) 99,12 %
28.05.2018 00:40 17,5 C 17,4 C 17,6 C 85 % 0 cb 1014,9 hPa 0,0 l/m 3,2 km/h (1 Bft) N-NO 22 0 min 0,000 mm 0 W/m 14,9 C 17,5 C 8,0 km/h (2 Bft) 100,00 %
28.05.2018 00:50 17,4 C 17,3 C 17,4 C 85 % 0 cb 1014,9 hPa 0,0 l/m 1,6 km/h (1 Bft) N-NO 22 0 min 0,000 mm 0 W/m 14,8 C 17,4 C 8,0 km/h (2 Bft) 100,00 %
28.05.2018 01:00 17,3 C 17,3 C 17,4 C 86 % 0 cb 1015,0 hPa 0,0 l/m 3,2 km/h (1 Bft) NO 45 0 min 0,025 mm 0 W/m 14,9 C 17,3 C 11,3 km/h (2 Bft) 100,00 %
28.05.2018 01:10 17,3 C 17,3 C 17,3 C 86 % 0 cb 1015,0 hPa 0,0 l/m 4,8 km/h (1 Bft) NO 45 0 min 0,000 mm 0 W/m 14,9 C 17,3 C 8,0 km/h (2 Bft) 99,12 %
28.05.2018 01:20 17,3 C 17,3 C 17,4 C 85 % 0 cb 1014,9 hPa 0,0 l/m 4,8 km/h (1 Bft) N-NO 22 0 min 0,000 mm 0 W/m 14,8 C 17,3 C 9,7 km/h (2 Bft) 100,00 %
28.05.2018 01:30 17,3 C 17,3 C 17,4 C 85 % 0 cb 1015,1 hPa 0,0 l/m 4,8 km/h (1 Bft) N-NO 22 0 min 0,000 mm 0 W/m 14,8 C 17,3 C 9,7 km/h (2 Bft) 100,00 %
28.05.2018 01:40 17,3 C 17,3 C 17,4 C 85 % 0 cb 1015,1 hPa 0,0 l/m 4,8 km/h (1 Bft) N-NO 22 0 min 0,000 mm 0 W/m 14,8 C 17,3 C 11,3 km/h (2 Bft) 100,00 %
28.05.2018 01:50 17,3 C 17,3 C 17,3 C 85 % 0 cb 1015,0 hPa 0,0 l/m 4,8 km/h (1 Bft) N-NO 22 0 min 0,000 mm 0 W/m 14,8 C 17,3 C 11,3 km/h (2 Bft) 100,00 %
28.05.2018 02:00 17,3 C 17,3 C 17,4 C 85 % 0 cb 1015,0 hPa 0,0 l/m 6,4 km/h (2 Bft) N-NO 22 0 min 0,025 mm 0 W/m 14,8 C 17,3 C 12,9 km/h (3 Bft) 100,00 %
28.05.2018 02:10 17,3 C 17,3 C 17,3 C 85 % 0 cb 1015,0 hPa 0,0 l/m 4,8 km/h (1 Bft) N-NO 22 0 min 0,000 mm 0 W/m 14,8 C 17,3 C 9,7 km/h (2 Bft) 100,00 %
28.05.2018 02:20 17,2 C 17,2 C 17,3 C 85 % 0 cb 1014,9 hPa 0,0 l/m 3,2 km/h (1 Bft) N-NO 22 0 min 0,000 mm 0 W/m 14,7 C 17,2 C 8,0 km/h (2 Bft) 100,00 %
28.05.2018 02:30 17,1 C 17,1 C 17,2 C 85 % 0 cb 1014,9 hPa 0,0 l/m 4,8 km/h (1 Bft) N 360 0 min 0,000 mm 0 W/m 14,6 C 17,1 C 9,7 km/h (2 Bft) 100,00 %
28.05.2018 02:40 17,3 C 17,1 C 17,3 C 85 % 0 cb 1014,9 hPa 0,0 l/m 6,4 km/h (2 Bft) N 360 0 min 0,000 mm 0 W/m 14,8 C 17,3 C 16,1 km/h (3 Bft) 100,00 %
28.05.2018 02:50 17,5 C 17,3 C 17,5 C 84 % 0 cb 1014,9 hPa 0,0 l/m 6,4 km/h (2 Bft) N-NO 22 0 min 0,000 mm 0 W/m 14,8 C 17,5 C 17,7 km/h (3 Bft) 100,00 %
28.05.2018 03:00 17,5 C 17,4 C 17,5 C 83 % 0 cb 1014,9 hPa 0,0 l/m 6,4 km/h (2 Bft) N-NO 22 0 min 0,025 mm 0 W/m 14,6 C 17,5 C 14,5 km/h (3 Bft) 98,68 %
28.05.2018 03:10 17,3 C 17,3 C 17,5 C 84 % 0 cb 1014,9 hPa 0,0 l/m 3,2 km/h (1 Bft) O-NO 67 0 min 0,000 mm 0 W/m 14,6 C 17,3 C 9,7 km/h (2 Bft) 100,00 %
28.05.2018 03:20 17,1 C 17,1 C 17,3 C 84 % 0 cb 1014,9 hPa 0,0 l/m 4,8 km/h (1 Bft) N-NO 22 0 min 0,000 mm 0 W/m 14,4 C 17,1 C 8,0 km/h (2 Bft) 100,00 %
28.05.2018 03:30 17,1 C 17,1 C 17,1 C 85 % 0 cb 1014,7 hPa 0,0 l/m 4,8 km/h (1 Bft) N-NO 22 0 min 0,000 mm 0 W/m 14,6 C 17,1 C 11,3 km/h (2 Bft) 100,00 %
28.05.2018 03:40 17,0 C 17,0 C 17,1 C 85 % 0 cb 1014,6 hPa 0,0 l/m 1,6 km/h (1 Bft) N-NO 22 0 min 0,000 mm 0 W/m 14,5 C 17,0 C 6,4 km/h (2 Bft) 100,00 %
28.05.2018 03:50 17,0 C 17,0 C 17,0 C 85 % 0 cb 1014,6 hPa 0,0 l/m 3,2 km/h (1 Bft) NO 45 0 min 0,000 mm 0 W/m 14,5 C 17,0 C 8,0 km/h (2 Bft) 100,00 %
28.05.2018 04:00 17,0 C 16,9 C 17,0 C 85 % 0 cb 1014,5 hPa 0,0 l/m 3,2 km/h (1 Bft) N-NO 22 0 min 0,025 mm 0 W/m 14,5 C 17,0 C 6,4 km/h (2 Bft) 100,00 %
28.05.2018 04:10 16,9 C 16,9 C 17,0 C 85 % 0 cb 1014,3 hPa 0,0 l/m 3,2 km/h (1 Bft) N-NO 22 0 min 0,000 mm 0 W/m 14,4 C 16,9 C 8,0 km/h (2 Bft) 100,00 %
28.05.2018 04:20 16,8 C 16,8 C 16,9 C 85 % 0 cb 1014,4 hPa 0,0 l/m 1,6 km/h (1 Bft) N-NW 337 0 min 0,000 mm 0 W/m 14,3 C 16,8 C 3,2 km/h (1 Bft) 100,00 %
28.05.2018 04:30 16,7 C 16,7 C 16,8 C 86 % 0 cb 1014,3 hPa 0,0 l/m 0,0 km/h (0 Bft) N 0 0 min 0,000 mm 0 W/m 14,3 C 16,7 C 0,0 km/h (0 Bft) 100,00 %
28.05.2018 04:40 16,6 C 16,6 C 16,7 C 86 % 0 cb 1014,4 hPa 0,0 l/m 0,0 km/h (0 Bft) N 0 0 min 0,000 mm 0 W/m 14,2 C 16,6 C 0,0 km/h (0 Bft) 100,00 %
28.05.2018 04:50 16,4 C 16,4 C 16,6 C 87 % 0 cb 1014,3 hPa 0,0 l/m 0,0 km/h (0 Bft) N 0 0 min 0,000 mm 0 W/m 14,2 C 16,4 C 0,0 km/h (0 Bft) 100,00 %
28.05.2018 05:00 16,3 C 16,3 C 16,4 C 87 % 0 cb 1014,6 hPa 0,0 l/m 0,0 km/h (0 Bft) S 180 0 min 0,025 mm 0 W/m 14,1 C 16,3 C 6,4 km/h (2 Bft) 100,00 %
28.05.2018 05:10 15,9 C 15,9 C 16,3 C 88 % 0 cb 1014,6 hPa 0,0 l/m 1,6 km/h (1 Bft) S 180 0 min 0,000 mm 0 W/m 13,9 C 15,9 C 11,3 km/h (2 Bft) 100,00 %
28.05.2018 05:20 15,6 C 15,6 C 15,9 C 89 % 0 cb 1014,7 hPa 0,0 l/m 0,0 km/h (0 Bft) S 180 0 min 0,000 mm 0 W/m 13,8 C 15,6 C 1,6 km/h (1 Bft) 100,00 %
28.05.2018 05:30 15,4 C 15,3 C 15,6 C 89 % 0 cb 1014,7 hPa 0,0 l/m 0,0 km/h (0 Bft) S 180 0 min 0,000 mm 5 W/m 13,6 C 15,4 C 3,2 km/h (1 Bft) 100,00 %
28.05.2018 05:40 15,2 C 15,2 C 15,3 C 91 % 0 cb 1014,7 hPa 0,0 l/m 1,6 km/h (1 Bft) S-SO 157 0 min 0,000 mm 9 W/m 13,7 C 15,2 C 3,2 km/h (1 Bft) 98,68 %
28.05.2018 05:50 15,2 C 15,2 C 15,3 C 91 % 0 cb 1014,8 hPa 0,0 l/m 1,6 km/h (1 Bft) O-SO 112 0 min 0,000 mm 19 W/m 13,7 C 15,2 C 4,8 km/h (1 Bft) 100,00 %
28.05.2018 06:00 15,1 C 15,1 C 15,2 C 91 % 0 cb 1014,8 hPa 0,0 l/m 1,6 km/h (1 Bft) O-NO 67 0 min 0,000 mm 23 W/m 13,6 C 15,1 C 4,8 km/h (1 Bft) 100,00 %
28.05.2018 06:10 15,1 C 15,1 C 15,1 C 92 % 0 cb 1014,8 hPa 0,0 l/m 1,6 km/h (1 Bft) O-NO 67 0 min 0,000 mm 28 W/m 13,8 C 15,1 C 4,8 km/h (1 Bft) 100,00 %
28.05.2018 06:20 15,2 C 15,1 C 15,2 C 92 % 0 cb 1014,7 hPa 0,0 l/m 4,8 km/h (1 Bft) N 360 0 min 0,000 mm 32 W/m 13,9 C 15,2 C 9,7 km/h (2 Bft) 99,56 %
28.05.2018 06:30 15,4 C 15,2 C 15,4 C 92 % 0 cb 1014,6 hPa 0,0 l/m 3,2 km/h (1 Bft) N-NO 22 0 min 0,000 mm 40 W/m 14,1 C 15,4 C 8,0 km/h (2 Bft) 100,00 %
28.05.2018 06:40 15,8 C 15,4 C 15,8 C 91 % 0 cb 1014,5 hPa 0,0 l/m 4,8 km/h (1 Bft) N-NO 22 0 min 0,000 mm 46 W/m 14,3 C 15,8 C 9,7 km/h (2 Bft) 100,00 %
28.05.2018 06:50 16,3 C 15,8 C 16,3 C 90 % 0 cb 1014,4 hPa 0,0 l/m 6,4 km/h (2 Bft) N-NO 22 0 min 0,000 mm 67 W/m 14,7 C 16,3 C 12,9 km/h (3 Bft) 100,00 %
28.05.2018 07:00 16,8 C 16,3 C 16,8 C 88 % 0 cb 1014,3 hPa 0,0 l/m 6,4 km/h (2 Bft) N-NO 22 0 min 0,025 mm 107 W/m 14,8 C 16,8 C 14,5 km/h (3 Bft) 100,00 %
28.05.2018 07:10 17,4 C 16,8 C 17,4 C 86 % 0 cb 1014,3 hPa 0,0 l/m 8,0 km/h (2 Bft) N-NO 22 0 min 0,000 mm 132 W/m 15,0 C 17,4 C 12,9 km/h (3 Bft) 96,93 %
28.05.2018 07:20 18,0 C 17,4 C 18,0 C 85 % 0 cb 1014,6 hPa 0,0 l/m 4,8 km/h (1 Bft) O-NO 67 10 min 0,000 mm 162 W/m 15,4 C 18,0 C 11,3 km/h (2 Bft) 100,00 %
28.05.2018 07:30 18,3 C 18,0 C 18,3 C 82 % 0 cb 1014,7 hPa 0,0 l/m 3,2 km/h (1 Bft) O-NO 67 10 min 0,000 mm 185 W/m 15,2 C 18,3 C 4,8 km/h (1 Bft) 100,00 %
28.05.2018 07:40 18,6 C 18,3 C 18,6 C 81 % 0 cb 1014,8 hPa 0,0 l/m 4,8 km/h (1 Bft) N-NO 22 10 min 0,000 mm 229 W/m 15,3 C 18,6 C 9,7 km/h (2 Bft) 100,00 %
28.05.2018 07:50 18,8 C 18,6 C 18,8 C 81 % 0 cb 1015,1 hPa 0,0 l/m 3,2 km/h (1 Bft) N-NO 22 10 min 0,000 mm 241 W/m 15,5 C 18,8 C 8,0 km/h (2 Bft) 100,00 %
28.05.2018 08:00 19,2 C 18,9 C 19,2 C 80 % 0 cb 1015,2 hPa 0,0 l/m 3,2 km/h (1 Bft) NO 45 10 min 0,127 mm 287 W/m 15,7 C 19,2 C 8,0 km/h (2 Bft) 100,00 %
28.05.2018 08:10 19,6 C 19,2 C 19,6 C 80 % 0 cb 1015,3 hPa 0,0 l/m 3,2 km/h (1 Bft) N-NO 22 10 min 0,000 mm 345 W/m 16,1 C 19,6 C 8,0 km/h (2 Bft) 99,12 %
28.05.2018 08:20 20,1 C 19,6 C 20,1 C 78 % 0 cb 1015,2 hPa 0,0 l/m 4,8 km/h (1 Bft) N-NO 22 10 min 0,000 mm 378 W/m 16,1 C 20,1 C 11,3 km/h (2 Bft) 100,00 %
28.05.2018 08:30 20,4 C 20,2 C 20,4 C 76 % 0 cb 1015,2 hPa 0,0 l/m 6,4 km/h (2 Bft) N-NO 22 10 min 0,000 mm 424 W/m 16,0 C 20,4 C 14,5 km/h (3 Bft) 100,00 %
28.05.2018 08:40 20,6 C 20,4 C 20,6 C 76 % 0 cb 1015,3 hPa 0,0 l/m 3,2 km/h (1 Bft) N-NO 22 10 min 0,000 mm 288 W/m 16,2 C 20,6 C 9,7 km/h (2 Bft) 100,00 %
28.05.2018 08:50 21,1 C 20,6 C 21,1 C 75 % 0 cb 1015,3 hPa 0,0 l/m 6,4 km/h (2 Bft) N-NO 22 10 min 0,000 mm 577 W/m 16,5 C 21,1 C 12,9 km/h (3 Bft) 100,00 %
28.05.2018 09:00 21,1 C 21,1 C 21,1 C 75 % 0 cb 1015,3 hPa 0,0 l/m 6,4 km/h (2 Bft) N-NO 22 10 min 0,229 mm 371 W/m 16,5 C 21,1 C 16,1 km/h (3 Bft) 100,00 %
28.05.2018 09:10 21,5 C 21,1 C 21,5 C 76 % 0 cb 1015,2 hPa 0,0 l/m 6,4 km/h (2 Bft) N-NO 22 10 min 0,000 mm 652 W/m 17,1 C 21,5 C 14,5 km/h (3 Bft) 100,00 %
28.05.2018 09:20 21,9 C 21,5 C 21,9 C 73 % 0 cb 1015,1 hPa 0,0 l/m 6,4 km/h (2 Bft) N 360 10 min 0,000 mm 596 W/m 16,8 C 21,9 C 14,5 km/h (3 Bft) 100,00 %
28.05.2018 09:30 21,7 C 21,7 C 21,9 C 74 % 0 cb 1015,2 hPa 0,0 l/m 6,4 km/h (2 Bft) N-NO 22 10 min 0,000 mm 267 W/m 16,9 C 21,7 C 11,3 km/h (2 Bft) 100,00 %
28.05.2018 09:40 21,7 C 21,6 C 21,7 C 75 % 0 cb 1015,2 hPa 0,0 l/m 6,4 km/h (2 Bft) N-NO 22 10 min 0,000 mm 315 W/m 17,1 C 21,7 C 12,9 km/h (3 Bft) 100,00 %
28.05.2018 09:50 21,7 C 21,6 C 21,7 C 74 % 0 cb 1015,2 hPa 0,0 l/m 6,4 km/h (2 Bft) N-NO 22 10 min 0,000 mm 322 W/m 16,9 C 21,7 C 14,5 km/h (3 Bft) 99,56 %
28.05.2018 10:00 21,7 C 21,7 C 21,8 C 73 % 0 cb 1015,0 hPa 0,0 l/m 6,4 km/h (2 Bft) N-NO 22 10 min 0,229 mm 327 W/m 16,6 C 21,7 C 16,1 km/h (3 Bft) 100,00 %
28.05.2018 10:10 22,1 C 21,8 C 22,1 C 74 % 0 cb 1015,0 hPa 0,0 l/m 4,8 km/h (1 Bft) N 360 10 min 0,000 mm 471 W/m 17,2 C 22,1 C 12,9 km/h (3 Bft) 100,00 %
28.05.2018 10:20 22,8 C 22,2 C 22,8 C 71 % 0 cb 1015,0 hPa 0,0 l/m 6,4 km/h (2 Bft) N 360 10 min 0,000 mm 909 W/m 17,3 C 22,8 C 14,5 km/h (3 Bft) 100,00 %
28.05.2018 10:30 23,4 C 22,8 C 23,4 C 70 % 0 cb 1015,0 hPa 0,0 l/m 4,8 km/h (1 Bft) N-NO 22 10 min 0,000 mm 654 W/m 17,6 C 23,4 C 14,5 km/h (3 Bft) 99,12 %
28.05.2018 10:40 23,4 C 23,4 C 23,6 C 68 % 0 cb 1015,1 hPa 0,0 l/m 4,8 km/h (1 Bft) NO 45 10 min 0,000 mm 403 W/m 17,1 C 23,4 C 12,9 km/h (3 Bft) 100,00 %
28.05.2018 10:50 23,6 C 23,4 C 23,6 C 69 % 0 cb 1015,1 hPa 0,0 l/m 3,2 km/h (1 Bft) O-NO 67 10 min 0,000 mm 624 W/m 17,6 C 23,6 C 14,5 km/h (3 Bft) 100,00 %
28.05.2018 11:00 24,0 C 23,6 C 24,0 C 67 % 0 cb 1015,0 hPa 0,0 l/m 4,8 km/h (1 Bft) NO 45 10 min 0,305 mm 578 W/m 17,5 C 24,0 C 12,9 km/h (3 Bft) 99,56 %
28.05.2018 11:10 24,4 C 24,0 C 24,4 C 65 % 0 cb 1014,8 hPa 0,0 l/m 4,8 km/h (1 Bft) NO 45 10 min 0,000 mm 786 W/m 17,4 C 24,4 C 14,5 km/h (3 Bft) 100,00 %
28.05.2018 11:20 24,8 C 24,4 C 24,8 C 63 % 0 cb 1014,8 hPa 0,0 l/m 6,4 km/h (2 Bft) N-NO 22 10 min 0,000 mm 998 W/m 17,3 C 24,8 C 17,7 km/h (3 Bft) 100,00 %
28.05.2018 11:30 25,2 C 24,8 C 25,2 C 65 % 0 cb 1014,8 hPa 0,0 l/m 4,8 km/h (1 Bft) N 360 10 min 0,000 mm 631 W/m 18,1 C 25,2 C 17,7 km/h (3 Bft) 100,00 %
28.05.2018 11:40 25,7 C 25,2 C 25,7 C 63 % 0 cb 1014,8 hPa 0,0 l/m 4,8 km/h (1 Bft) NO 45 10 min 0,000 mm 981 W/m 18,1 C 25,7 C 14,5 km/h (3 Bft) 100,00 %
28.05.2018 11:50 25,8 C 25,7 C 25,8 C 61 % 0 cb 1014,7 hPa 0,0 l/m 4,8 km/h (1 Bft) O-NO 67 10 min 0,000 mm 682 W/m 17,7 C 25,8 C 14,5 km/h (3 Bft) 100,00 %
28.05.2018 12:00 25,9 C 25,8 C 25,9 C 61 % 0 cb 1014,6 hPa 0,0 l/m 4,8 km/h (1 Bft) N 360 10 min 0,483 mm 993 W/m 17,8 C 25,9 C 12,9 km/h (3 Bft) 100,00 %
28.05.2018 12:10 26,1 C 25,9 C 26,1 C 59 % 0 cb 1014,6 hPa 0,0 l/m 4,8 km/h (1 Bft) N 360 10 min 0,000 mm 1014 W/m 17,4 C 26,1 C 12,9 km/h (3 Bft) 99,56 %
28.05.2018 12:20 26,7 C 26,1 C 26,7 C 61 % 0 cb 1014,5 hPa 0,0 l/m 3,2 km/h (1 Bft) O-NO 67 10 min 0,000 mm 1055 W/m 18,5 C 26,7 C 12,9 km/h (3 Bft) 100,00 %
28.05.2018 12:30 27,2 C 26,7 C 27,2 C 57 % 0 cb 1014,5 hPa 0,0 l/m 4,8 km/h (1 Bft) N-NW 337 10 min 0,000 mm 998 W/m 17,9 C 27,2 C 12,9 km/h (3 Bft) 100,00 %
28.05.2018 12:40 27,7 C 27,2 C 27,7 C 50 % 0 cb 1014,4 hPa 0,0 l/m 4,8 km/h (1 Bft) O 90 10 min 0,000 mm 933 W/m 16,3 C 27,7 C 16,1 km/h (3 Bft) 100,00 %
28.05.2018 12:50 28,2 C 27,7 C 28,2 C 49 % 0 cb 1014,5 hPa 0,0 l/m 6,4 km/h (2 Bft) O 90 10 min 0,000 mm 919 W/m 16,5 C 28,2 C 17,7 km/h (3 Bft) 100,00 %
28.05.2018 13:00 28,3 C 28,2 C 28,3 C 51 % 0 cb 1014,4 hPa 0,0 l/m 6,4 km/h (2 Bft) O 90 10 min 0,584 mm 889 W/m 17,2 C 28,3 C 19,3 km/h (3 Bft) 100,00 %
28.05.2018 13:10 28,2 C 28,1 C 28,3 C 49 % 0 cb 1014,4 hPa 0,0 l/m 8,0 km/h (2 Bft) O-NO 67 10 min 0,000 mm 939 W/m 16,5 C 28,2 C 20,9 km/h (4 Bft) 100,00 %
28.05.2018 13:20 28,6 C 28,2 C 28,6 C 47 % 0 cb 1014,4 hPa 0,0 l/m 6,4 km/h (2 Bft) O 90 10 min 0,000 mm 914 W/m 16,2 C 28,6 C 17,7 km/h (3 Bft) 100,00 %
28.05.2018 13:30 28,4 C 28,4 C 28,6 C 44 % 0 cb 1014,4 hPa 0,0 l/m 8,0 km/h (2 Bft) O 90 10 min 0,000 mm 872 W/m 14,9 C 28,4 C 19,3 km/h (3 Bft) 100,00 %
28.05.2018 13:40 28,3 C 28,3 C 28,4 C 45 % 0 cb 1014,3 hPa 0,0 l/m 8,0 km/h (2 Bft) O 90 10 min 0,000 mm 895 W/m 15,2 C 28,3 C 25,7 km/h (4 Bft) 100,00 %
28.05.2018 13:50 28,2 C 28,2 C 28,3 C 44 % 0 cb 1014,2 hPa 0,0 l/m 8,0 km/h (2 Bft) O 90 10 min 0,000 mm 854 W/m 14,8 C 28,2 C 20,9 km/h (4 Bft) 100,00 %
28.05.2018 14:00 28,0 C 28,0 C 28,2 C 47 % 0 cb 1014,0 hPa 0,0 l/m 9,7 km/h (2 Bft) O 90 10 min 0,635 mm 833 W/m 15,6 C 28,0 C 19,3 km/h (3 Bft) 100,00 %
28.05.2018 14:10 28,2 C 28,0 C 28,2 C 47 % 0 cb 1013,9 hPa 0,0 l/m 8,0 km/h (2 Bft) O 90 10 min 0,000 mm 838 W/m 15,8 C 28,2 C 19,3 km/h (3 Bft) 100,00 %
28.05.2018 14:20 28,3 C 28,2 C 28,3 C 46 % 0 cb 1013,8 hPa 0,0 l/m 8,0 km/h (2 Bft) O 90 10 min 0,000 mm 838 W/m 15,6 C 28,3 C 19,3 km/h (3 Bft) 100,00 %
28.05.2018 14:30 28,4 C 28,3 C 28,4 C 45 % 0 cb 1013,7 hPa 0,0 l/m 6,4 km/h (2 Bft) O 90 10 min 0,000 mm 831 W/m 15,3 C 28,4 C 16,1 km/h (3 Bft) 100,00 %
28.05.2018 14:40 28,3 C 28,3 C 28,4 C 48 % 0 cb 1013,5 hPa 0,0 l/m 8,0 km/h (2 Bft) O-NO 67 10 min 0,000 mm 775 W/m 16,2 C 28,3 C 19,3 km/h (3 Bft) 100,00 %
28.05.2018 14:50 28,2 C 28,2 C 28,3 C 45 % 0 cb 1013,3 hPa 0,0 l/m 6,4 km/h (2 Bft) O-NO 67 10 min 0,000 mm 786 W/m 15,1 C 28,2 C 17,7 km/h (3 Bft) 100,00 %
28.05.2018 15:00 28,3 C 28,2 C 28,3 C 45 % 0 cb 1013,1 hPa 0,0 l/m 6,4 km/h (2 Bft) NO 45 10 min 0,584 mm 791 W/m 15,2 C 28,3 C 14,5 km/h (3 Bft) 100,00 %
28.05.2018 15:10 28,5 C 28,3 C 28,5 C 47 % 0 cb 1013,0 hPa 0,0 l/m 6,4 km/h (2 Bft) O-NO 67 10 min 0,000 mm 779 W/m 16,1 C 28,5 C 19,3 km/h (3 Bft) 100,00 %
28.05.2018 15:20 28,4 C 28,4 C 28,5 C 46 % 0 cb 1013,0 hPa 0,0 l/m 8,0 km/h (2 Bft) O-NO 67 10 min 0,000 mm 770 W/m 15,6 C 28,4 C 20,9 km/h (4 Bft) 100,00 %
28.05.2018 15:30 28,2 C 28,2 C 28,4 C 46 % 0 cb 1012,7 hPa 0,0 l/m 8,0 km/h (2 Bft) O 90 10 min 0,000 mm 749 W/m 15,5 C 28,2 C 20,9 km/h (4 Bft) 100,00 %
28.05.2018 15:40 28,3 C 28,2 C 28,3 C 49 % 0 cb 1012,6 hPa 0,0 l/m 6,4 km/h (2 Bft) O 90 10 min 0,000 mm 721 W/m 16,5 C 28,3 C 20,9 km/h (4 Bft) 100,00 %
28.05.2018 15:50 28,4 C 28,3 C 28,4 C 49 % 0 cb 1012,5 hPa 0,0 l/m 6,4 km/h (2 Bft) O 90 10 min 0,000 mm 717 W/m 16,6 C 28,4 C 20,9 km/h (4 Bft) 100,00 %
28.05.2018 16:00 28,6 C 28,4 C 28,6 C 50 % 0 cb 1012,5 hPa 0,0 l/m 4,8 km/h (1 Bft) O-NO 67 10 min 0,533 mm 694 W/m 17,1 C 28,6 C 17,7 km/h (3 Bft) 100,00 %
28.05.2018 16:10 28,4 C 28,4 C 28,7 C 50 % 0 cb 1012,6 hPa 0,0 l/m 8,0 km/h (2 Bft) O-NO 67 10 min 0,000 mm 689 W/m 17,0 C 28,4 C 20,9 km/h (4 Bft) 99,56 %
28.05.2018 16:20 28,2 C 28,2 C 28,3 C 50 % 0 cb 1012,5 hPa 0,0 l/m 6,4 km/h (2 Bft) O 90 10 min 0,000 mm 621 W/m 16,8 C 28,2 C 19,3 km/h (3 Bft) 100,00 %
28.05.2018 16:30 28,2 C 28,2 C 28,2 C 53 % 0 cb 1012,5 hPa 0,0 l/m 4,8 km/h (1 Bft) O 90 10 min 0,000 mm 677 W/m 17,7 C 28,2 C 14,5 km/h (3 Bft) 100,00 %
28.05.2018 16:40 28,3 C 28,2 C 28,3 C 51 % 0 cb 1012,4 hPa 0,0 l/m 6,4 km/h (2 Bft) O-NO 67 10 min 0,000 mm 654 W/m 17,2 C 28,3 C 17,7 km/h (3 Bft) 100,00 %
28.05.2018 16:50 28,3 C 28,3 C 28,4 C 51 % 0 cb 1012,2 hPa 0,0 l/m 6,4 km/h (2 Bft) O-NO 67 10 min 0,000 mm 708 W/m 17,2 C 28,3 C 16,1 km/h (3 Bft) 100,00 %
28.05.2018 17:00 28,3 C 28,3 C 28,3 C 50 % 0 cb 1011,9 hPa 0,0 l/m 6,4 km/h (2 Bft) O-NO 67 10 min 0,432 mm 605 W/m 16,9 C 28,3 C 17,7 km/h (3 Bft) 100,00 %
28.05.2018 17:10 28,2 C 28,2 C 28,3 C 48 % 0 cb 1011,7 hPa 0,0 l/m 8,0 km/h (2 Bft) O-NO 67 10 min 0,000 mm 559 W/m 16,1 C 28,2 C 22,5 km/h (4 Bft) 100,00 %
28.05.2018 17:20 28,1 C 28,1 C 28,2 C 50 % 0 cb 1011,6 hPa 0,0 l/m 6,4 km/h (2 Bft) O-NO 67 10 min 0,000 mm 582 W/m 16,7 C 28,1 C 19,3 km/h (3 Bft) 100,00 %
28.05.2018 17:30 28,1 C 28,1 C 28,2 C 50 % 0 cb 1011,7 hPa 0,0 l/m 8,0 km/h (2 Bft) O-NO 67 10 min 0,000 mm 439 W/m 16,7 C 28,1 C 22,5 km/h (4 Bft) 100,00 %
28.05.2018 17:40 27,6 C 27,6 C 28,1 C 51 % 0 cb 1011,7 hPa 0,0 l/m 6,4 km/h (2 Bft) NO 45 10 min 0,000 mm 313 W/m 16,5 C 27,6 C 14,5 km/h (3 Bft) 100,00 %
28.05.2018 17:50 27,2 C 27,2 C 27,6 C 53 % 0 cb 1011,7 hPa 0,0 l/m 4,8 km/h (1 Bft) O-NO 67 10 min 0,000 mm 287 W/m 16,8 C 27,2 C 16,1 km/h (3 Bft) 99,56 %
28.05.2018 18:00 26,9 C 26,9 C 27,2 C 53 % 0 cb 1011,7 hPa 0,0 l/m 6,4 km/h (2 Bft) N-NO 22 10 min 0,279 mm 199 W/m 16,5 C 26,9 C 19,3 km/h (3 Bft) 100,00 %
28.05.2018 18:10 26,7 C 26,7 C 26,9 C 53 % 0 cb 1011,7 hPa 0,0 l/m 4,8 km/h (1 Bft) NO 45 10 min 0,000 mm 167 W/m 16,3 C 26,7 C 14,5 km/h (3 Bft) 100,00 %
28.05.2018 18:20 26,6 C 26,6 C 26,7 C 54 % 0 cb 1011,6 hPa 0,0 l/m 4,8 km/h (1 Bft) O 90 10 min 0,000 mm 160 W/m 16,5 C 26,6 C 14,5 km/h (3 Bft) 100,00 %
28.05.2018 18:30 26,6 C 26,6 C 26,7 C 54 % 0 cb 1011,8 hPa 0,0 l/m 3,2 km/h (1 Bft) O-NO 67 0 min 0,000 mm 149 W/m 16,5 C 26,6 C 12,9 km/h (3 Bft) 100,00 %
28.05.2018 18:40 26,4 C 26,4 C 26,6 C 55 % 0 cb 1011,8 hPa 0,0 l/m 3,2 km/h (1 Bft) NO 45 0 min 0,000 mm 135 W/m 16,6 C 26,4 C 12,9 km/h (3 Bft) 100,00 %
28.05.2018 18:50 26,3 C 26,3 C 26,4 C 54 % 0 cb 1011,9 hPa 0,0 l/m 3,2 km/h (1 Bft) NO 45 0 min 0,000 mm 113 W/m 16,2 C 26,3 C 14,5 km/h (3 Bft) 100,00 %
28.05.2018 19:00 26,2 C 26,2 C 26,3 C 54 % 0 cb 1012,0 hPa 0,0 l/m 3,2 km/h (1 Bft) O-NO 67 0 min 0,127 mm 88 W/m 16,1 C 26,2 C 11,3 km/h (2 Bft) 100,00 %
28.05.2018 19:10 26,1 C 26,1 C 26,2 C 56 % 0 cb 1012,0 hPa 0,0 l/m 1,6 km/h (1 Bft) NO 45 0 min 0,000 mm 76 W/m 16,6 C 26,1 C 6,4 km/h (2 Bft) 100,00 %
28.05.2018 19:20 25,9 C 25,9 C 26,1 C 55 % 0 cb 1011,9 hPa 0,0 l/m 3,2 km/h (1 Bft) N-NO 22 0 min 0,000 mm 67 W/m 16,2 C 25,9 C 8,0 km/h (2 Bft) 100,00 %
28.05.2018 19:30 25,8 C 25,8 C 25,9 C 55 % 0 cb 1011,9 hPa 0,0 l/m 3,2 km/h (1 Bft) N-NO 22 0 min 0,000 mm 56 W/m 16,1 C 25,8 C 14,5 km/h (3 Bft) 100,00 %
28.05.2018 19:40 25,7 C 25,7 C 25,8 C 56 % 0 cb 1011,9 hPa 0,0 l/m 3,2 km/h (1 Bft) O-NO 67 0 min 0,000 mm 40 W/m 16,2 C 25,7 C 12,9 km/h (3 Bft) 100,00 %
28.05.2018 19:50 25,5 C 25,5 C 25,7 C 56 % 0 cb 1012,0 hPa 0,0 l/m 3,2 km/h (1 Bft) NO 45 0 min 0,000 mm 30 W/m 16,1 C 25,5 C 9,7 km/h (2 Bft) 100,00 %
28.05.2018 20:00 25,4 C 25,4 C 25,5 C 57 % 0 cb 1012,1 hPa 0,0 l/m 1,6 km/h (1 Bft) NO 45 0 min 0,051 mm 26 W/m 16,2 C 25,4 C 8,0 km/h (2 Bft) 100,00 %
28.05.2018 20:10 25,3 C 25,3 C 25,4 C 56 % 0 cb 1012,1 hPa 0,0 l/m 3,2 km/h (1 Bft) N-NO 22 0 min 0,000 mm 30 W/m 15,9 C 25,3 C 8,0 km/h (2 Bft) 96,49 %
28.05.2018 20:20 25,2 C 25,2 C 25,3 C 56 % 0 cb 1012,0 hPa 0,0 l/m 1,6 km/h (1 Bft) NO 45 0 min 0,000 mm 30 W/m 15,8 C 25,2 C 8,0 km/h (2 Bft) 100,00 %
28.05.2018 20:30 25,1 C 25,1 C 25,2 C 57 % 0 cb 1012,1 hPa 0,0 l/m 1,6 km/h (1 Bft) NO 45 0 min 0,000 mm 26 W/m 16,0 C 25,1 C 6,4 km/h (2 Bft) 100,00 %
28.05.2018 20:40 24,4 C 24,4 C 25,1 C 61 % 0 cb 1012,2 hPa 0,0 l/m 4,8 km/h (1 Bft) W-SW 247 0 min 0,000 mm 18 W/m 16,4 C 24,4 C 9,7 km/h (2 Bft) 100,00 %
28.05.2018 20:50 23,9 C 23,9 C 24,4 C 63 % 0 cb 1012,2 hPa 0,0 l/m 3,2 km/h (1 Bft) W-SW 247 0 min 0,000 mm 12 W/m 16,4 C 23,9 C 14,5 km/h (3 Bft) 100,00 %
28.05.2018 21:00 23,4 C 23,4 C 23,9 C 65 % 0 cb 1012,2 hPa 0,0 l/m 3,2 km/h (1 Bft) W 270 0 min 0,051 mm 12 W/m 16,4 C 23,4 C 11,3 km/h (2 Bft) 100,00 %
28.05.2018 21:10 22,8 C 22,8 C 23,4 C 66 % 0 cb 1012,3 hPa 0,0 l/m 4,8 km/h (1 Bft) W 270 0 min 0,000 mm 9 W/m 16,1 C 22,8 C 12,9 km/h (3 Bft) 100,00 %
28.05.2018 21:20 22,3 C 22,3 C 22,8 C 68 % 0 cb 1012,2 hPa 0,0 l/m 3,2 km/h (1 Bft) W 270 0 min 0,000 mm 5 W/m 16,1 C 22,3 C 9,7 km/h (2 Bft) 100,00 %
28.05.2018 21:30 21,9 C 21,9 C 22,3 C 70 % 0 cb 1012,2 hPa 0,0 l/m 0,0 km/h (0 Bft) W-NW 292 0 min 0,000 mm 0 W/m 16,2 C 21,9 C 3,2 km/h (1 Bft) 100,00 %
28.05.2018 21:40 21,7 C 21,7 C 21,9 C 71 % 0 cb 1012,2 hPa 0,0 l/m 0,0 km/h (0 Bft) N-NO 22 0 min 0,000 mm 0 W/m 16,2 C 21,7 C 4,8 km/h (1 Bft) 100,00 %
28.05.2018 21:50 21,2 C 21,2 C 21,6 C 73 % 0 cb 1012,2 hPa 0,0 l/m 0,0 km/h (0 Bft) NO 45 0 min 0,000 mm 0 W/m 16,2 C 21,2 C 4,8 km/h (1 Bft) 100,00 %
28.05.2018 22:00 20,8 C 20,8 C 21,1 C 74 % 0 cb 1012,1 hPa 0,0 l/m 0,0 km/h (0 Bft) NO 45 0 min 0,025 mm 0 W/m 16,0 C 20,8 C 1,6 km/h (1 Bft) 100,00 %
28.05.2018 22:10 20,5 C 20,5 C 20,8 C 76 % 0 cb 1012,2 hPa 0,0 l/m 0,0 km/h (0 Bft) N 0 0 min 0,000 mm 0 W/m 16,1 C 20,5 C 0,0 km/h (0 Bft) 100,00 %
28.05.2018 22:20 20,2 C 20,2 C 20,5 C 77 % 0 cb 1012,2 hPa 0,0 l/m 0,0 km/h (0 Bft) NO 45 0 min 0,000 mm 0 W/m 16,0 C 20,2 C 1,6 km/h (1 Bft) 100,00 %
28.05.2018 22:30 19,9 C 19,9 C 20,2 C 78 % 0 cb 1012,2 hPa 0,0 l/m 0,0 km/h (0 Bft) N 0 0 min 0,000 mm 0 W/m 15,9 C 19,9 C 0,0 km/h (0 Bft) 100,00 %
28.05.2018 22:40 19,7 C 19,7 C 19,9 C 79 % 0 cb 1012,2 hPa 0,0 l/m 0,0 km/h (0 Bft) NO 45 0 min 0,000 mm 0 W/m 16,0 C 19,7 C 4,8 km/h (1 Bft) 100,00 %
28.05.2018 22:50 19,8 C 19,6 C 19,8 C 78 % 0 cb 1012,0 hPa 0,0 l/m 3,2 km/h (1 Bft) N-NO 22 0 min 0,000 mm 0 W/m 15,8 C 19,8 C 8,0 km/h (2 Bft) 100,00 %
28.05.2018 23:00 20,1 C 19,8 C 20,1 C 76 % 0 cb 1012,0 hPa 0,0 l/m 3,2 km/h (1 Bft) N-NO 22 0 min 0,025 mm 0 W/m 15,7 C 20,1 C 8,0 km/h (2 Bft) 100,00 %
28.05.2018 23:10 20,3 C 20,1 C 20,3 C 75 % 0 cb 1012,2 hPa 0,0 l/m 3,2 km/h (1 Bft) N 360 0 min 0,000 mm 0 W/m 15,7 C 20,3 C 8,0 km/h (2 Bft) 100,00 %
28.05.2018 23:20 20,7 C 20,3 C 20,7 C 74 % 0 cb 1012,2 hPa 0,0 l/m 3,2 km/h (1 Bft) N-NO 22 0 min 0,000 mm 0 W/m 15,9 C 20,7 C 9,7 km/h (2 Bft) 100,00 %
28.05.2018 23:30 20,8 C 20,8 C 20,8 C 74 % 0 cb 1012,1 hPa 0,0 l/m 3,2 km/h (1 Bft) N-NO 22 0 min 0,000 mm 0 W/m 16,0 C 20,8 C 6,4 km/h (2 Bft) 100,00 %
28.05.2018 23:40 20,7 C 20,7 C 20,8 C 74 % 0 cb 1012,3 hPa 0,0 l/m 1,6 km/h (1 Bft) N-NO 22 0 min 0,000 mm 0 W/m 15,9 C 20,7 C 4,8 km/h (1 Bft) 100,00 %
28.05.2018 23:50 20,7 C 20,7 C 20,7 C 73 % 0 cb 1012,2 hPa 0,0 l/m 3,2 km/h (1 Bft) N-NO 22 0 min 0,000 mm 0 W/m 15,7 C 20,7 C 6,4 km/h (2 Bft) 100,00 %
_ Min-Zeit 06:00 06:00 06:10 13:30 00:00 17:20 - 04:30 - - - - - 05:30 06:00 04:30 20:10
Minimum _ 15,1 C 15,1 C 15,1 C 44 % 0 cb 1011,6 hPa - 0,0 km/h (0 Bft) - - - - - 13,6 C 15,1 C 0,0 km/h (0 Bft) 96,49 %
_ Max-Zeit 16:10 13:30 16:10 06:10 00:00 08:10 00:00 14:00 - - 07:20 14:00 12:20 12:20 13:20 13:40 00:00
Maximum _ 28,7 C 28,4 C 28,7 C 92 % 0 cb 1015,3 hPa 0,0 l/m 9,7 km/h
O (2 Bft)
- - 10 min 0,635 mm 1055 W/m 18,5 C 28,6 C 25,7 km/h
O-NO (4 Bft)
100,00 %
Durchschnitt _ 22,2 C 22,1 C 22,3 C 69 % 0 cb 1013,7 hPa #0,0 l/m 4,4 km/h (1 Bft) N-NO - #11:10 h #4,874 mm 450 W/m 15,8 C 22,2 C 11,9 km/h (2 Bft) 99,89 %
Wetterstation Gdesweiler